Time;durP1;ratioP1;P1;durP2;ratioP2;P2;SDS_P1;SDS_P2;PMS_P1;PMS_P2;Temp;Humidity;BMP_temperature;BMP_pressure;BME280_temperature;BME280_humidity;BME280_pressure;Samples;Min_cycle;Max_cycle;Signal;HPM_P1;HPM_P2
2021/09/11 00:02:22;;;;;;;12.60;8.02;;;21.60;70.70;;;;;;6224862;28;20417;-81
2021/09/11 00:05:24;;;;;;;10.10;7.75;;;21.60;71.00;;;;;;6224241;28;20471;-81
2021/09/11 00:08:26;;;;;;;8.32;7.63;;;21.60;70.60;;;;;;6225081;28;20945;-82
2021/09/11 00:11:28;;;;;;;7.15;6.47;;;21.60;70.60;;;;;;6225965;28;20442;-81
2021/09/11 00:14:30;;;;;;;7.07;6.47;;;21.50;70.60;;;;;;6224559;28;20475;-81
2021/09/11 00:17:33;;;;;;;6.75;6.15;;;21.50;70.20;;;;;;6196192;28;20484;-81
2021/09/11 00:20:35;;;;;;;6.53;5.88;;;21.50;70.20;;;;;;6200528;28;20471;-81
2021/09/11 00:23:38;;;;;;;6.07;5.47;;;21.50;70.10;;;;;;6205541;28;20520;-81
2021/09/11 00:26:40;;;;;;;6.23;5.60;;;21.40;69.90;;;;;;6216344;28;20520;-81
2021/09/11 00:29:42;;;;;;;7.50;4.90;;;21.40;70.00;;;;;;6224477;28;20514;-82
2021/09/11 00:32:45;;;;;;;5.60;5.10;;;21.30;70.10;;;;;;6221340;28;20490;-81
2021/09/11 00:35:46;;;;;;;5.72;5.22;;;21.30;70.10;;;;;;6190452;28;20525;-81
2021/09/11 00:38:48;;;;;;;6.20;4.78;;;21.30;70.30;;;;;;6198873;28;20506;-81
2021/09/11 00:41:50;;;;;;;5.25;4.85;;;21.30;70.50;;;;;;6199051;28;20426;-81
2021/09/11 00:44:52;;;;;;;5.63;5.03;;;21.20;70.70;;;;;;6198809;28;20574;-81
2021/09/11 00:47:55;;;;;;;5.28;4.75;;;21.20;71.00;;;;;;6202172;28;20433;-80
2021/09/11 00:50:57;;;;;;;5.70;4.83;;;21.20;71.40;;;;;;6200279;28;20426;-80
2021/09/11 00:54:00;;;;;;;4.90;4.40;;;21.10;71.70;;;;;;6205496;28;20508;-81
2021/09/11 00:57:01;;;;;;;5.38;4.97;;;21.10;72.30;;;;;;6213948;28;20408;-80
2021/09/11 01:00:04;;;;;;;5.25;4.75;;;21.00;72.50;;;;;;6222370;28;20436;-81
2021/09/11 01:03:07;;;;;;;5.05;4.55;;;21.00;72.90;;;;;;6222785;28;20421;-81
2021/09/11 01:06:10;;;;;;;6.30;5.28;;;20.90;73.20;;;;;;6230023;22;20438;-80
2021/09/11 01:09:14;;;;;;;5.40;4.90;;;20.90;73.70;;;;;;6201538;28;20460;-80
2021/09/11 01:12:16;;;;;;;5.57;5.05;;;20.80;74.20;;;;;;6200705;28;20934;-80
2021/09/11 01:15:18;;;;;;;5.78;5.28;;;20.70;74.60;;;;;;6200776;28;20422;-79
2021/09/11 01:18:21;;;;;;;5.07;4.65;;;20.70;74.90;;;;;;6201090;28;20422;-80
2021/09/11 01:21:23;;;;;;;5.10;4.70;;;20.80;75.00;;;;;;6201724;28;20505;-82
2021/09/11 01:24:26;;;;;;;5.90;5.30;;;20.70;75.00;;;;;;6209121;28;20442;-81
2021/09/11 01:27:28;;;;;;;5.22;4.82;;;20.70;75.30;;;;;;6246394;28;20439;-80
2021/09/11 01:30:30;;;;;;;5.75;5.25;;;20.70;75.30;;;;;;6233078;28;20486;-80
2021/09/11 01:33:32;;;;;;;5.97;5.47;;;20.70;75.80;;;;;;6223269;28;20507;-79
2021/09/11 01:36:34;;;;;;;5.75;5.15;;;20.70;75.80;;;;;;6199363;28;20444;-79
2021/09/11 01:39:37;;;;;;;6.30;5.70;;;20.70;75.80;;;;;;6200894;28;20441;-81
2021/09/11 01:42:40;;;;;;;6.47;5.83;;;20.70;75.90;;;;;;6200560;28;20504;-82
2021/09/11 01:45:41;;;;;;;5.75;5.22;;;20.70;75.80;;;;;;6200888;28;20497;-80
2021/09/11 01:48:44;;;;;;;6.27;5.67;;;20.80;75.80;;;;;;6200843;28;20720;-81
2021/09/11 01:51:46;;;;;;;7.20;6.15;;;20.70;76.00;;;;;;6201735;28;20520;-80
2021/09/11 01:54:50;;;;;;;5.97;5.50;;;20.70;76.00;;;;;;6205033;28;20498;-81
2021/09/11 01:57:52;;;;;;;5.70;5.10;;;20.70;76.00;;;;;;6223992;28;20417;-80
2021/09/11 02:00:54;;;;;;;6.55;5.95;;;20.70;76.90;;;;;;6227092;28;20506;-80
2021/09/11 02:03:55;;;;;;;6.00;5.40;;;20.70;76.30;;;;;;6230669;28;20490;-79
2021/09/11 02:06:57;;;;;;;5.70;5.20;;;20.70;76.10;;;;;;6230270;28;20898;-79
2021/09/11 02:10:01;;;;;;;6.45;5.90;;;20.70;76.60;;;;;;6231537;28;20500;-79
2021/09/11 02:13:03;;;;;;;6.68;5.78;;;20.70;76.10;;;;;;6233247;28;20498;-79
2021/09/11 02:16:05;;;;;;;6.25;5.60;;;20.70;76.10;;;;;;6233036;28;20527;-80
2021/09/11 02:19:08;;;;;;;6.13;5.60;;;20.70;76.30;;;;;;6232773;28;20911;-79
2021/09/11 02:22:10;;;;;;;6.43;5.72;;;20.60;76.40;;;;;;6231574;28;20413;-80
2021/09/11 02:25:14;;;;;;;6.40;5.90;;;20.60;76.50;;;;;;6221014;28;20800;-80
2021/09/11 02:28:15;;;;;;;6.18;5.68;;;20.50;76.60;;;;;;6234585;28;20468;-79
2021/09/11 02:31:17;;;;;;;7.47;6.25;;;20.60;76.80;;;;;;6233019;28;20475;-81
2021/09/11 02:34:19;;;;;;;6.73;6.13;;;20.60;77.50;;;;;;6233144;28;20488;-82
2021/09/11 02:37:21;;;;;;;6.50;5.90;;;20.60;76.90;;;;;;6231806;28;20444;-80
2021/09/11 02:40:24;;;;;;;6.70;6.10;;;20.60;76.90;;;;;;6233513;28;20894;-81
2021/09/11 02:43:26;;;;;;;7.70;6.28;;;20.60;76.80;;;;;;6232346;28;20455;-81
2021/09/11 02:46:29;;;;;;;6.57;5.97;;;20.60;76.90;;;;;;6248641;28;20469;-80
2021/09/11 02:49:32;;;;;;;7.00;6.45;;;20.60;76.90;;;;;;6256144;28;20533;-81
2021/09/11 02:52:33;;;;;;;7.15;6.45;;;20.60;76.70;;;;;;6256073;28;20445;-80
2021/09/11 02:55:37;;;;;;;6.32;5.72;;;20.60;76.80;;;;;;6245348;28;20649;-81
2021/09/11 02:58:38;;;;;;;7.10;6.40;;;20.60;77.00;;;;;;6237934;28;20902;-79
2021/09/11 03:01:40;;;;;;;6.55;6.00;;;20.60;77.10;;;;;;6232142;28;20988;-81
2021/09/11 03:04:42;;;;;;;6.75;6.15;;;20.50;77.30;;;;;;6230860;28;20432;-80
2021/09/11 03:07:44;;;;;;;6.90;6.20;;;20.40;77.50;;;;;;6231589;28;20456;-80
2021/09/11 03:10:48;;;;;;;7.38;6.72;;;20.30;77.80;;;;;;6231288;28;20475;-80
2021/09/11 03:13:50;;;;;;;7.75;7.05;;;20.30;78.10;;;;;;6231181;28;20421;-79
2021/09/11 03:16:51;;;;;;;8.20;7.50;;;20.20;78.50;;;;;;6230250;28;20743;-78
2021/09/11 03:19:53;;;;;;;7.45;6.70;;;20.10;78.50;;;;;;6231544;28;20496;-79
2021/09/11 03:22:55;;;;;;;8.35;6.63;;;20.10;78.50;;;;;;6228326;28;20421;-80
2021/09/11 03:25:58;;;;;;;7.03;6.40;;;20.10;78.70;;;;;;6221412;28;20502;-81
2021/09/11 03:29:00;;;;;;;7.60;7.00;;;20.10;78.70;;;;;;6231078;28;20424;-80
2021/09/11 03:32:02;;;;;;;7.80;7.13;;;20.10;78.90;;;;;;6232085;28;20436;-81
2021/09/11 03:35:04;;;;;;;8.10;6.82;;;20.10;79.00;;;;;;6230938;28;20421;-80
2021/09/11 03:38:06;;;;;;;7.30;6.60;;;20.10;79.00;;;;;;6208197;28;20477;-79
2021/09/11 03:41:10;;;;;;;8.13;7.32;;;20.20;79.00;;;;;;6206287;28;20442;-81
2021/09/11 03:44:12;;;;;;;7.53;6.73;;;20.20;78.80;;;;;;6210187;28;20434;-79
2021/09/11 03:47:14;;;;;;;7.78;6.95;;;20.20;78.60;;;;;;6212103;28;20415;-80
2021/09/11 03:50:16;;;;;;;7.25;6.55;;;20.30;78.60;;;;;;6208120;28;20426;-80
2021/09/11 03:53:18;;;;;;;7.10;6.50;;;20.30;78.50;;;;;;6209236;28;20426;-81
2021/09/11 03:56:23;;;;;;;7.20;6.50;;;20.30;78.50;;;;;;6222647;28;20458;-79
2021/09/11 03:59:27;;;;;;;7.93;7.25;;;20.20;78.50;;;;;;6231031;28;20419;-81
2021/09/11 04:02:29;;;;;;;7.63;6.93;;;20.20;78.70;;;;;;6230435;28;20503;-79
2021/09/11 04:05:31;;;;;;;8.32;7.53;;;20.10;79.00;;;;;;6230022;28;20495;-81
2021/09/11 04:08:33;;;;;;;7.97;7.18;;;20.10;78.90;;;;;;6230357;28;20507;-78
2021/09/11 04:11:36;;;;;;;8.32;7.43;;;20.10;79.10;;;;;;6230763;28;20530;-81
2021/09/11 04:14:38;;;;;;;8.93;7.13;;;20.10;79.10;;;;;;6230298;28;20498;-80
2021/09/11 04:17:40;;;;;;;7.72;7.03;;;20.10;79.10;;;;;;6230142;28;20499;-78
2021/09/11 04:20:42;;;;;;;8.82;7.93;;;20.00;79.30;;;;;;6230178;28;20806;-79
2021/09/11 04:23:44;;;;;;;8.05;7.35;;;20.00;79.40;;;;;;6225245;28;20480;-80
2021/09/11 04:26:47;;;;;;;9.13;6.77;;;20.00;79.40;;;;;;6218689;28;20936;-80
2021/09/11 04:29:49;;;;;;;6.90;6.30;;;20.00;79.50;;;;;;6226763;28;20429;-80
2021/09/11 04:32:51;;;;;;;8.93;8.00;;;20.00;80.10;;;;;;6226462;28;20467;-78
2021/09/11 04:35:53;;;;;;;9.48;7.70;;;19.80;79.60;;;;;;6226487;28;20468;-79
2021/09/11 04:38:54;;;;;;;8.80;7.53;;;19.70;80.00;;;;;;6191040;28;20499;-79
2021/09/11 04:41:58;;;;;;;8.70;7.90;;;19.60;80.20;;;;;;6178629;28;20424;-79
2021/09/11 04:45:00;;;;;;;8.70;7.80;;;19.50;80.60;;;;;;6177918;28;20448;-80
2021/09/11 04:48:02;;;;;;;8.65;7.75;;;19.40;80.90;;;;;;6180093;28;20454;-79
2021/09/11 04:51:03;;;;;;;8.45;7.45;;;19.30;81.10;;;;;;6180061;28;20490;-79
2021/09/11 04:54:05;;;;;;;9.27;8.23;;;19.40;81.00;;;;;;6199086;28;20491;-78
2021/09/11 04:57:08;;;;;;;8.45;7.63;;;19.50;80.50;;;;;;6218434;28;20416;-80
2021/09/11 05:00:11;;;;;;;7.45;6.70;;;19.60;80.30;;;;;;6227230;28;20516;-79
2021/09/11 05:03:13;;;;;;;8.05;7.25;;;19.60;80.30;;;;;;6227463;28;20468;-79
2021/09/11 05:06:15;;;;;;;8.73;7.93;;;19.70;80.40;;;;;;6227737;28;20555;-79
2021/09/11 05:09:17;;;;;;;8.30;7.50;;;19.70;80.50;;;;;;6227942;28;20444;-78
2021/09/11 05:12:20;;;;;;;9.80;8.90;;;19.70;80.50;;;;;;6229646;28;20476;-80
2021/09/11 05:15:22;;;;;;;7.97;7.13;;;19.70;80.30;;;;;;6229266;28;20412;-79
2021/09/11 05:18:24;;;;;;;8.20;7.50;;;19.70;80.30;;;;;;6229789;28;20421;-78
2021/09/11 05:21:26;;;;;;;9.05;7.90;;;19.80;80.30;;;;;;6229610;28;20508;-80
2021/09/11 05:24:28;;;;;;;8.85;7.95;;;19.70;80.30;;;;;;6221846;28;20442;-79
2021/09/11 05:27:31;;;;;;;7.97;7.20;;;19.70;80.30;;;;;;6224448;28;20566;-78
2021/09/11 05:30:33;;;;;;;8.70;7.80;;;19.80;80.20;;;;;;6227813;28;20536;-79
2021/09/11 05:33:34;;;;;;;9.13;8.32;;;19.80;80.40;;;;;;6228660;28;20440;-79
2021/09/11 05:36:36;;;;;;;8.07;7.00;;;19.80;80.20;;;;;;6228185;28;20433;-78
2021/09/11 05:39:38;;;;;;;7.32;6.63;;;19.80;80.20;;;;;;6202429;28;20470;-79
2021/09/11 05:42:41;;;;;;;8.68;7.88;;;19.80;80.00;;;;;;6180131;28;20423;-77
2021/09/11 05:45:43;;;;;;;9.10;7.82;;;19.90;79.90;;;;;;6179287;28;20782;-79
2021/09/11 05:48:45;;;;;;;9.38;8.43;;;20.00;79.60;;;;;;6179432;28;20420;-78
2021/09/11 05:51:47;;;;;;;8.70;7.57;;;20.10;79.30;;;;;;6180024;28;20436;-78
2021/09/11 05:54:49;;;;;;;8.00;7.30;;;20.20;79.10;;;;;;6204624;28;20427;-81
2021/09/11 05:57:52;;;;;;;8.02;7.30;;;20.30;78.80;;;;;;6225998;28;20416;-79
2021/09/11 06:00:54;;;;;;;8.85;8.05;;;20.30;78.60;;;;;;6227898;28;20484;-78
2021/09/11 06:03:55;;;;;;;11.18;8.52;;;20.40;78.60;;;;;;6228744;28;20523;-78
2021/09/11 06:06:57;;;;;;;8.05;7.35;;;20.40;78.80;;;;;;6227096;28;20466;-78
2021/09/11 06:10:00;;;;;;;8.88;7.35;;;20.50;78.50;;;;;;6227858;28;20448;-79
2021/09/11 06:13:03;;;;;;;8.75;7.95;;;20.50;78.20;;;;;;6227584;28;20448;-79
2021/09/11 06:16:08;;;;;;;8.77;7.87;;;20.50;77.90;;;;;;6226886;28;20433;-78
2021/09/11 06:19:10;;;;;;;8.75;7.65;;;20.50;78.00;;;;;;6226031;28;20779;-79
2021/09/11 06:22:13;;;;;;;15.57;14.18;;;20.60;78.00;;;;;;6226808;28;21231;-79
2021/09/11 06:25:15;;;;;;;9.68;8.88;;;20.70;77.70;;;;;;6217367;28;20429;-80
2021/09/11 06:28:21;;;;;;;9.93;7.72;;;20.80;77.20;;;;;;6226750;28;20482;-79
2021/09/11 06:31:23;;;;;;;9.03;8.23;;;20.90;77.10;;;;;;6226527;28;20423;-79
2021/09/11 06:34:25;;;;;;;8.90;7.50;;;20.90;76.60;;;;;;6225819;28;20420;-79
2021/09/11 06:37:27;;;;;;;9.80;7.97;;;21.00;77.40;;;;;;6225907;28;20942;-79
2021/09/11 06:40:29;;;;;;;11.32;10.13;;;21.00;76.50;;;;;;6200857;28;20513;-78
2021/09/11 06:43:32;;;;;;;9.13;8.25;;;21.10;76.00;;;;;;6173645;28;21044;-77
2021/09/11 06:46:34;;;;;;;10.85;9.82;;;21.10;76.10;;;;;;6174076;28;20460;-77
2021/09/11 06:49:36;;;;;;;26.50;23.92;;;21.20;76.00;;;;;;6177285;28;20448;-77
2021/09/11 06:52:37;;;;;;;11.00;8.47;;;21.30;75.80;;;;;;6178745;28;20865;-77
2021/09/11 06:55:39;;;;;;;7.63;6.93;;;21.40;74.90;;;;;;6216171;28;20432;-77
2021/09/11 06:58:42;;;;;;;8.63;6.80;;;21.40;74.70;;;;;;6228840;28;20555;-77
2021/09/11 07:01:45;;;;;;;10.05;6.28;;;21.40;74.90;;;;;;6229525;28;20417;-78
2021/09/11 07:04:47;;;;;;;12.97;11.37;;;21.40;75.10;;;;;;6231447;28;20548;-78
2021/09/11 07:07:48;;;;;;;8.90;8.07;;;21.40;75.00;;;;;;6248325;22;20594;-77
2021/09/11 07:10:51;;;;;;;10.32;7.13;;;21.40;74.80;;;;;;6223852;28;20479;-77
2021/09/11 07:13:54;;;;;;;6.78;6.18;;;21.50;75.30;;;;;;6223525;28;20424;-77
2021/09/11 07:16:56;;;;;;;6.40;5.80;;;21.50;74.50;;;;;;6224216;28;20488;-77
2021/09/11 07:19:58;;;;;;;6.82;6.15;;;21.50;74.30;;;;;;6224158;28;21048;-77
2021/09/11 07:22:59;;;;;;;5.60;5.20;;;21.50;74.10;;;;;;6224038;28;20417;-77
2021/09/11 07:26:01;;;;;;;6.13;5.53;;;21.40;74.10;;;;;;6214811;28;20417;-77
2021/09/11 07:29:04;;;;;;;6.95;6.13;;;21.50;73.90;;;;;;6224008;28;20482;-77
2021/09/11 07:32:07;;;;;;;6.90;5.72;;;21.50;73.90;;;;;;6223762;28;20470;-77
2021/09/11 07:35:10;;;;;;;7.32;6.03;;;21.50;73.70;;;;;;6223233;28;20427;-77
2021/09/11 07:38:14;;;;;;;9.87;5.97;;;21.50;73.70;;;;;;6223730;28;20482;-78
2021/09/11 07:41:16;;;;;;;6.20;5.40;;;21.60;73.70;;;;;;6213684;28;20924;-77
2021/09/11 07:44:19;;;;;;;5.75;5.28;;;21.70;73.60;;;;;;6222682;28;20517;-76
2021/09/11 07:47:21;;;;;;;7.50;6.10;;;21.80;73.40;;;;;;6222608;28;21056;-77
2021/09/11 07:50:26;;;;;;;6.07;5.47;;;21.90;72.90;;;;;;6222698;28;20936;-77
2021/09/11 07:53:28;;;;;;;8.52;5.93;;;22.00;72.70;;;;;;6222656;28;20428;-77
2021/09/11 07:56:30;;;;;;;7.40;5.17;;;22.30;71.80;;;;;;6215032;28;20558;-77
2021/09/11 07:59:33;;;;;;;6.43;5.78;;;22.60;70.90;;;;;;6222936;28;20914;-78
2021/09/11 08:02:35;;;;;;;21.55;19.42;;;23.00;69.30;;;;;;6225802;28;20500;-79
2021/09/11 08:05:37;;;;;;;28.30;25.23;;;23.30;68.40;;;;;;6225302;28;20829;-78
2021/09/11 08:08:39;;;;;;;9.95;7.20;;;23.50;67.40;;;;;;6224921;28;20813;-78
2021/09/11 08:11:41;;;;;;;8.43;7.60;;;23.80;66.30;;;;;;6225312;28;20519;-78
2021/09/11 08:14:44;;;;;;;5.80;4.85;;;23.90;65.50;;;;;;6224361;28;20461;-78
2021/09/11 08:17:47;;;;;;;6.47;5.43;;;24.00;64.90;;;;;;6223761;28;21316;-78
2021/09/11 08:20:49;;;;;;;5.55;5.05;;;24.00;64.20;;;;;;6225042;28;20881;-78
2021/09/11 08:23:51;;;;;;;7.88;5.32;;;24.00;64.00;;;;;;6224437;28;20492;-78
2021/09/11 08:26:53;;;;;;;5.93;5.43;;;24.00;64.00;;;;;;6214419;28;20782;-78
2021/09/11 08:29:56;;;;;;;5.53;5.13;;;23.80;64.60;;;;;;6223727;28;20499;-78
2021/09/11 08:32:58;;;;;;;8.00;5.53;;;23.60;65.30;;;;;;6223697;28;20492;-77
2021/09/11 08:36:00;;;;;;;6.47;5.80;;;23.60;65.70;;;;;;6221907;28;20522;-77
2021/09/11 08:39:02;;;;;;;4.72;4.32;;;23.50;65.20;;;;;;6223938;28;20444;-77
2021/09/11 08:42:04;;;;;;;7.43;5.28;;;23.50;65.80;;;;;;6215866;28;20456;-77
2021/09/11 08:45:12;;;;;;;5.32;4.82;;;23.60;66.30;;;;;;6222315;28;20448;-77
2021/09/11 08:48:14;;;;;;;5.63;5.13;;;23.50;65.80;;;;;;6226435;28;20436;-77
2021/09/11 08:51:16;;;;;;;5.60;5.10;;;23.50;65.90;;;;;;6226862;28;20495;-77
2021/09/11 08:54:19;;;;;;;5.97;5.30;;;23.50;66.40;;;;;;6219451;28;20457;-77
2021/09/11 08:57:23;;;;;;;5.53;5.00;;;23.60;66.30;;;;;;6215530;28;20434;-78
2021/09/11 09:00:39;;;;;;;6.10;5.40;;;23.80;65.60;;;;;;6222261;28;20445;-77
2021/09/11 09:03:42;;;;;;;6.63;4.93;;;24.10;64.70;;;;;;6224263;28;20829;-78
2021/09/11 09:06:45;;;;;;;6.13;5.53;;;24.40;64.10;;;;;;6222802;28;21127;-78
2021/09/11 09:09:47;;;;;;;5.78;5.00;;;24.60;63.40;;;;;;6221958;28;20459;-78
2021/09/11 09:12:50;;;;;;;8.77;5.25;;;24.70;63.10;;;;;;6221247;28;20440;-77
2021/09/11 09:16:12;;;;;;;5.82;5.18;;;24.60;63.30;;;;;;6221359;28;20937;-77
2021/09/11 09:19:16;;;;;;;6.30;5.13;;;24.40;63.80;;;;;;6221671;28;20527;-77
2021/09/11 09:22:23;;;;;;;8.00;6.10;;;24.30;64.40;;;;;;6221424;28;20487;-77
2021/09/11 09:25:27;;;;;;;6.28;5.68;;;24.40;63.80;;;;;;6208182;28;20421;-77
2021/09/11 09:28:30;;;;;;;6.13;5.15;;;24.50;64.30;;;;;;6221841;28;20529;-78
2021/09/11 09:31:33;;;;;;;6.43;4.97;;;24.60;64.00;;;;;;6221310;28;21111;-77
2021/09/11 09:34:37;;;;;;;6.00;5.50;;;24.60;63.70;;;;;;6220643;28;20416;-77
2021/09/11 09:37:53;;;;;;;9.57;5.63;;;24.80;63.60;;;;;;6221097;28;20491;-78
2021/09/11 09:40:56;;;;;;;4.60;4.20;;;25.00;63.20;;;;;;6221705;28;20493;-77
2021/09/11 09:43:57;;;;;;;6.30;4.30;;;25.30;61.80;;;;;;6206967;28;20517;-77
2021/09/11 09:47:04;;;;;;;5.32;4.63;;;25.60;61.20;;;;;;6195429;28;20626;-77
2021/09/11 09:50:07;;;;;;;4.80;4.37;;;25.90;59.50;;;;;;6195486;28;20966;-77
2021/09/11 09:53:10;;;;;;;4.47;3.93;;;25.90;59.70;;;;;;6201163;28;20517;-77
2021/09/11 09:56:13;;;;;;;5.68;4.70;;;26.00;59.10;;;;;;6212632;28;20440;-77
2021/09/11 09:59:17;;;;;;;4.60;4.05;;;26.10;59.30;;;;;;6220297;28;20513;-77
2021/09/11 10:02:20;;;;;;;9.20;4.45;;;26.40;58.50;;;;;;6220169;28;20412;-77
2021/09/11 10:05:25;;;;;;;5.30;4.32;;;26.80;57.40;;;;;;6219806;28;20473;-77
2021/09/11 10:08:29;;;;;;;5.05;4.53;;;27.20;55.70;;;;;;6219699;28;20479;-77
2021/09/11 10:11:35;;;;;;;5.50;3.80;;;27.20;55.40;;;;;;6220292;28;20979;-77
2021/09/11 10:14:37;;;;;;;4.32;3.90;;;27.40;55.60;;;;;;6219866;28;20566;-77
2021/09/11 10:17:40;;;;;;;4.93;4.45;;;27.70;54.90;;;;;;6219655;28;20413;-78
2021/09/11 10:21:14;;;;;;;7.27;3.67;;;27.80;53.80;;;;;;6220457;28;20476;-77
2021/09/11 10:24:36;;;;;;;3.65;3.25;;;27.70;54.30;;;;;;6223184;28;20563;-77
2021/09/11 10:27:40;;;;;;;4.00;3.55;;;28.30;53.60;;;;;;6198903;28;20505;-78
2021/09/11 10:31:07;;;;;;;5.00;3.22;;;28.80;52.60;;;;;;6200803;28;20986;-78
2021/09/11 10:34:16;;;;;;;3.50;3.20;;;29.00;51.10;;;;;;6200762;28;20418;-77
2021/09/11 10:37:29;;;;;;;4.00;3.15;;;28.80;50.80;;;;;;6200513;28;20935;-77
2021/09/11 10:40:37;;;;;;;4.35;3.95;;;28.50;51.90;;;;;;6201171;28;20927;-78
2021/09/11 10:43:39;;;;;;;4.00;3.60;;;28.00;52.40;;;;;;6195680;28;20523;-78
2021/09/11 10:46:49;;;;;;;4.93;3.92;;;27.50;54.60;;;;;;6194916;28;20438;-78
2021/09/11 10:50:12;;;;;;;5.83;4.07;;;27.20;54.90;;;;;;6200327;28;20505;-77
2021/09/11 10:53:20;;;;;;;4.20;3.33;;;26.80;56.50;;;;;;6200402;28;20552;-77
2021/09/11 10:56:25;;;;;;;6.13;4.53;;;27.00;56.90;;;;;;6189625;28;20440;-77
2021/09/11 10:59:32;;;;;;;11.15;4.80;;;27.30;54.20;;;;;;6176093;28;20412;-77
2021/09/11 11:02:38;;;;;;;6.25;4.63;;;27.00;55.30;;;;;;6175690;28;20491;-78
2021/09/11 11:06:02;;;;;;;3.95;3.65;;;27.10;55.80;;;;;;6176048;28;20444;-77
2021/09/11 11:09:04;;;;;;;5.00;4.30;;;27.40;53.90;;;;;;6176022;28;20852;-77
2021/09/11 11:12:07;;;;;;;9.80;3.92;;;27.50;54.00;;;;;;6175871;28;20574;-78
2021/09/11 11:15:11;;;;;;;4.25;3.78;;;27.40;54.10;;;;;;6175970;28;20435;-78
2021/09/11 11:18:13;;;;;;;3.80;3.40;;;27.30;54.80;;;;;;6175283;28;20551;-77
2021/09/11 11:21:19;;;;;;;5.03;4.13;;;27.40;53.80;;;;;;6176426;28;20423;-77
2021/09/11 11:24:21;;;;;;;4.93;3.58;;;27.80;53.10;;;;;;6183983;28;20434;-77
2021/09/11 11:27:26;;;;;;;3.45;3.15;;;28.30;51.80;;;;;;6195018;28;20425;-78
2021/09/11 11:30:28;;;;;;;4.13;3.43;;;28.70;51.10;;;;;;6199443;28;20927;-77
2021/09/11 11:33:36;;;;;;;3.73;3.37;;;28.90;50.50;;;;;;6200549;28;20501;-77
2021/09/11 11:36:47;;;;;;;4.18;3.67;;;29.00;49.30;;;;;;6199891;28;20462;-78
2021/09/11 11:39:49;;;;;;;6.68;6.07;;;28.90;49.80;;;;;;6192013;28;20943;-77
2021/09/11 11:42:51;;;;;;;4.82;3.50;;;28.70;50.40;;;;;;6196523;28;20482;-77
2021/09/11 11:45:54;;;;;;;5.97;4.35;;;28.40;53.90;;;;;;6186349;28;20427;-77
2021/09/11 11:48:56;;;;;;;5.22;4.72;;;27.60;60.80;;;;;;6198523;28;20818;-78
2021/09/11 11:51:59;;;;;;;4.57;3.85;;;26.70;64.40;;;;;;6199418;28;20528;-77
2021/09/11 11:55:08;;;;;;;2.88;2.40;;;26.20;68.00;;;;;;6190836;28;20905;-77
2021/09/11 11:58:14;;;;;;;3.03;2.30;;;25.90;63.80;;;;;;6173657;28;20504;-77
2021/09/11 12:01:30;;;;;;;4.45;2.55;;;25.80;63.80;;;;;;6174147;28;20845;-77
2021/09/11 12:04:31;;;;;;;3.72;2.63;;;26.00;65.40;;;;;;6173709;28;20443;-77
2021/09/11 12:07:36;;;;;;;4.13;2.53;;;26.30;62.00;;;;;;6174284;28;20426;-78
2021/09/11 12:10:38;;;;;;;3.60;2.27;;;26.70;60.60;;;;;;6174270;28;20444;-77
2021/09/11 12:13:40;;;;;;;2.30;2.10;;;26.80;58.60;;;;;;6174115;28;20491;-77
2021/09/11 12:16:44;;;;;;;3.63;2.88;;;27.00;59.40;;;;;;6172922;28;20914;-78
2021/09/11 12:19:46;;;;;;;3.22;2.67;;;27.00;59.20;;;;;;6174091;28;20447;-77
2021/09/11 12:26:19;;;;;;;2.60;2.40;;;26.90;59.60;;;;;;6319240;27;20425;-77
2021/09/11 12:29:20;;;;;;;4.03;2.90;;;26.50;59.20;;;;;;6319208;28;20415;-81
2021/09/11 12:32:22;;;;;;;3.83;2.80;;;26.40;63.30;;;;;;6322773;28;20431;-81
2021/09/11 12:35:29;;;;;;;5.18;3.38;;;26.30;65.20;;;;;;6322257;28;20809;-81
2021/09/11 12:38:40;;;;;;;4.87;2.97;;;26.30;66.20;;;;;;6304556;28;20422;-80
2021/09/11 12:41:44;;;;;;;3.03;2.83;;;26.30;65.70;;;;;;6297191;28;20428;-81
2021/09/11 12:44:46;;;;;;;4.15;3.00;;;26.40;62.90;;;;;;6296487;28;23962;-80
2021/09/11 12:47:48;;;;;;;3.63;2.65;;;26.50;63.50;;;;;;6277690;28;20522;-84
2021/09/11 12:50:50;;;;;;;2.90;2.47;;;26.50;60.90;;;;;;6312574;28;21046;-82
2021/09/11 12:53:52;;;;;;;3.20;2.90;;;26.60;61.80;;;;;;6322687;27;20419;-81
2021/09/11 12:56:56;;;;;;;3.92;3.50;;;26.60;62.70;;;;;;6323285;27;20499;-82
2021/09/11 12:59:58;;;;;;;5.20;3.97;;;26.50;63.40;;;;;;6322659;28;20476;-82
2021/09/11 13:03:00;;;;;;;5.88;4.45;;;26.50;62.20;;;;;;6322295;27;20439;-80
2021/09/11 13:06:01;;;;;;;4.57;3.42;;;26.40;62.60;;;;;;6323390;27;20454;-81
2021/09/11 13:09:04;;;;;;;6.22;4.05;;;26.30;61.70;;;;;;6328636;27;20945;-81
2021/09/11 13:12:07;;;;;;;3.58;3.22;;;26.30;62.90;;;;;;6329043;28;20431;-81
2021/09/11 13:15:10;;;;;;;6.18;4.00;;;26.30;63.20;;;;;;6338653;28;20471;-81
2021/09/11 13:18:12;;;;;;;5.07;3.40;;;26.40;61.60;;;;;;6335724;28;20423;-81
2021/09/11 13:21:15;;;;;;;6.30;5.57;;;26.50;60.90;;;;;;6330896;28;20411;-81
2021/09/11 13:24:17;;;;;;;3.87;3.10;;;26.60;61.00;;;;;;6328364;28;20451;-81
2021/09/11 13:27:20;;;;;;;4.80;4.30;;;26.60;59.80;;;;;;6349547;27;20853;-79
2021/09/11 13:30:22;;;;;;;3.47;3.17;;;26.60;59.50;;;;;;6348488;28;20559;-80
2021/09/11 13:33:24;;;;;;;3.42;3.13;;;26.60;59.40;;;;;;6345656;28;20936;-78
2021/09/11 13:36:28;;;;;;;5.22;3.10;;;26.50;59.60;;;;;;6331684;28;20514;-77
2021/09/11 13:39:30;;;;;;;3.63;2.92;;;26.40;60.10;;;;;;6324499;28;20578;-78
2021/09/11 13:42:33;;;;;;;3.20;2.90;;;26.30;60.20;;;;;;6327485;28;20660;-78
2021/09/11 13:45:36;;;;;;;5.07;2.85;;;26.30;60.70;;;;;;6326921;28;20567;-78
2021/09/11 13:48:38;;;;;;;4.50;2.93;;;26.40;60.80;;;;;;6326050;27;20429;-79
2021/09/11 13:51:40;;;;;;;3.47;2.28;;;26.50;60.50;;;;;;6330678;28;20494;-79
2021/09/11 13:54:43;;;;;;;2.40;1.70;;;26.60;58.50;;;;;;6337279;27;20410;-79
2021/09/11 13:57:46;;;;;;;2.22;1.67;;;26.50;57.80;;;;;;6331946;27;20516;-79
2021/09/11 14:00:48;;;;;;;1.30;1.20;;;26.40;57.80;;;;;;6331796;27;20812;-79
2021/09/11 14:03:50;;;;;;;5.30;4.80;;;26.20;59.20;;;;;;6334757;28;20857;-79
2021/09/11 14:06:52;;;;;;;1.60;1.20;;;26.20;59.20;;;;;;6331329;27;20475;-80
2021/09/11 14:09:55;;;;;;;1.13;0.97;;;26.10;58.50;;;;;;6330972;27;20444;-79
2021/09/11 14:12:58;;;;;;;1.90;1.00;;;26.20;57.60;;;;;;6330808;27;20444;-78
2021/09/11 14:16:00;;;;;;;1.05;0.95;;;26.30;59.20;;;;;;6334050;28;21026;-79
2021/09/11 14:19:02;;;;;;;2.43;1.47;;;26.40;57.00;;;;;;6333668;27;20489;-79
2021/09/11 14:22:04;;;;;;;1.70;1.33;;;26.20;57.40;;;;;;6332196;28;20437;-80
2021/09/11 14:25:07;;;;;;;1.52;1.33;;;26.30;58.60;;;;;;6337451;28;20994;-79
2021/09/11 14:28:10;;;;;;;3.20;2.33;;;26.00;59.00;;;;;;6326081;28;20502;-80
2021/09/11 14:31:12;;;;;;;3.70;2.28;;;25.80;59.60;;;;;;6335612;27;20455;-79
2021/09/11 14:34:14;;;;;;;3.08;2.53;;;25.70;58.90;;;;;;6333279;28;20432;-80
2021/09/11 14:37:16;;;;;;;3.13;2.30;;;25.60;60.10;;;;;;6337305;28;20498;-79
2021/09/11 14:40:18;;;;;;;4.47;2.33;;;25.40;60.40;;;;;;6338910;28;20525;-79
2021/09/11 14:43:21;;;;;;;2.83;2.10;;;25.40;61.00;;;;;;6337235;28;20495;-79
2021/09/11 14:46:23;;;;;;;2.67;2.37;;;25.40;60.10;;;;;;6338330;28;20551;-79
2021/09/11 14:49:25;;;;;;;4.70;2.70;;;25.40;60.60;;;;;;6335033;27;20414;-79
2021/09/11 14:52:27;;;;;;;3.05;2.05;;;25.40;60.90;;;;;;6337084;28;20834;-79
2021/09/11 14:55:29;;;;;;;3.90;2.10;;;25.50;60.50;;;;;;6344667;28;20422;-79
2021/09/11 14:58:32;;;;;;;2.80;2.20;;;25.60;59.70;;;;;;6338608;28;20466;-80
2021/09/11 15:01:34;;;;;;;3.60;3.30;;;25.80;58.40;;;;;;6335987;28;20415;-79
2021/09/11 15:04:36;;;;;;;2.08;1.88;;;25.80;58.50;;;;;;6332262;28;20460;-79
2021/09/11 15:07:38;;;;;;;3.15;2.13;;;25.80;58.60;;;;;;6332703;28;20450;-79
2021/09/11 15:10:39;;;;;;;6.10;2.00;;;25.80;57.60;;;;;;6329937;28;20429;-79
2021/09/11 15:13:43;;;;;;;2.08;1.88;;;25.70;58.10;;;;;;6330101;28;20914;-78
2021/09/11 15:16:44;;;;;;;1.77;1.50;;;25.70;57.60;;;;;;6331546;28;20414;-78
2021/09/11 15:19:46;;;;;;;2.33;2.08;;;25.60;57.60;;;;;;6329040;28;20837;-78
2021/09/11 15:22:48;;;;;;;1.48;1.38;;;25.60;57.90;;;;;;6328645;28;20493;-78
2021/09/11 15:25:50;;;;;;;2.08;1.85;;;25.60;58.10;;;;;;6330257;28;20413;-80
2021/09/11 15:28:53;;;;;;;1.90;1.47;;;25.70;57.80;;;;;;6333320;28;20410;-79
2021/09/11 15:31:55;;;;;;;1.70;1.60;;;25.70;58.50;;;;;;6329704;28;20425;-79
2021/09/11 15:34:57;;;;;;;1.70;1.60;;;25.60;57.40;;;;;;6330896;28;20493;-80
2021/09/11 15:37:59;;;;;;;1.80;1.70;;;25.40;56.80;;;;;;6326562;28;20414;-80
2021/09/11 15:41:01;;;;;;;2.53;2.08;;;25.30;58.50;;;;;;6332032;27;20402;-80
2021/09/11 15:44:04;;;;;;;8.27;4.93;;;25.30;56.80;;;;;;6335765;28;20422;-79
2021/09/11 15:47:08;;;;;;;3.97;2.30;;;25.20;58.00;;;;;;6335403;27;20471;-80
2021/09/11 15:50:11;;;;;;;3.50;2.63;;;25.10;58.60;;;;;;6333267;28;20436;-80
2021/09/11 15:53:13;;;;;;;3.90;2.15;;;25.20;59.10;;;;;;6328405;27;20435;-80
2021/09/11 15:56:16;;;;;;;3.65;3.00;;;25.20;58.10;;;;;;6332662;28;20940;-80